createdAt,value
2022-08-05T00:00:17.331Z,23.99
2022-08-05T00:02:51.458Z,24.03
2022-08-05T00:06:01.698Z,24.06
2022-08-05T00:08:34.169Z,24.06
2022-08-05T00:11:00.395Z,24.07
2022-08-05T00:13:39.084Z,24.09
2022-08-05T00:16:08.969Z,24.09
2022-08-05T00:18:38.022Z,24.09
2022-08-05T00:21:06.784Z,24.06
2022-08-05T00:23:46.579Z,24.03
2022-08-05T00:26:21.978Z,23.96
2022-08-05T00:28:49.244Z,23.92
2022-08-05T00:31:16.297Z,23.87
2022-08-05T00:34:54.293Z,23.82
2022-08-05T00:37:12.873Z,23.78
2022-08-05T00:39:15.787Z,23.76
2022-08-05T00:41:52.155Z,23.75
2022-08-05T00:44:30.698Z,23.70
2022-08-05T00:47:02.196Z,23.72
2022-08-05T00:49:32.425Z,23.72
2022-08-05T00:51:59.558Z,23.73
2022-08-05T00:54:28.138Z,23.72
2022-08-05T00:56:56.895Z,23.72
2022-08-05T00:59:23.775Z,23.68
2022-08-05T01:01:51.130Z,23.65
2022-08-05T01:04:19.943Z,23.60
2022-08-05T01:06:53.015Z,23.55
2022-08-05T01:09:19.996Z,23.50
2022-08-05T01:11:49.644Z,23.46
2022-08-05T01:14:45.059Z,23.40
2022-08-05T01:17:23.585Z,23.36
2022-08-05T01:20:07.716Z,23.29
2022-08-05T01:22:37.294Z,23.27
2022-08-05T01:25:19.368Z,23.29
2022-08-05T01:27:58.465Z,23.38
2022-08-05T01:30:33.509Z,23.47
2022-08-05T01:33:08.114Z,23.51
2022-08-05T01:35:51.657Z,23.52
2022-08-05T01:38:27.532Z,23.50
2022-08-05T01:41:01.894Z,23.49
2022-08-05T01:43:31.081Z,23.45
2022-08-05T01:46:07.183Z,23.42
2022-08-05T01:48:49.586Z,23.41
2022-08-05T01:51:18.858Z,23.39
2022-08-05T01:53:57.708Z,23.40
2022-08-05T01:58:11.544Z,23.40
2022-08-05T01:59:22.911Z,23.41
2022-08-05T02:01:54.735Z,23.40
2022-08-05T02:04:26.561Z,23.44
2022-08-05T02:06:53.430Z,23.49
2022-08-05T02:09:20.834Z,23.47
2022-08-05T02:12:10.039Z,23.41
2022-08-05T02:14:47.809Z,23.36
2022-08-05T02:18:14.583Z,23.33
2022-08-05T02:20:14.501Z,23.28
2022-08-05T02:22:50.184Z,23.20
2022-08-05T02:25:33.055Z,23.14
2022-08-05T02:28:01.857Z,23.10
2022-08-05T02:30:38.327Z,23.07
2022-08-05T02:33:24.443Z,23.01
2022-08-05T02:36:03.522Z,22.91
2022-08-05T02:38:35.464Z,22.87
2022-08-05T02:41:14.649Z,22.79
2022-08-05T02:44:06.485Z,22.71
2022-08-05T02:46:36.119Z,22.64
2022-08-05T02:49:22.958Z,22.60
2022-08-05T02:52:03.556Z,22.58
2022-08-05T02:54:36.127Z,22.56
2022-08-05T02:57:10.124Z,22.55
2022-08-05T02:59:54.261Z,22.57
2022-08-05T03:02:27.429Z,22.60
2022-08-05T03:04:55.214Z,22.63
2022-08-05T03:07:48.430Z,22.69
2022-08-05T03:10:10.539Z,22.70
2022-08-05T03:12:40.210Z,22.67
2022-08-05T03:15:12.193Z,22.63
2022-08-05T03:17:41.614Z,22.59
2022-08-05T03:20:10.099Z,22.54
2022-08-05T03:22:37.006Z,22.49
2022-08-05T03:25:33.302Z,22.44
2022-08-05T03:27:59.012Z,22.39
2022-08-05T03:30:28.663Z,22.47
2022-08-05T03:33:02.874Z,22.40
2022-08-05T03:35:33.746Z,22.23
2022-08-05T03:38:01.221Z,22.16
2022-08-05T03:40:32.025Z,22.18
2022-08-05T03:43:01.665Z,22.06
2022-08-05T03:45:57.084Z,21.98
2022-08-05T03:48:29.631Z,21.94
2022-08-05T03:52:37.445Z,21.91
2022-08-05T03:55:54.744Z,21.88
2022-08-05T03:57:34.185Z,21.82
2022-08-05T04:00:08.011Z,21.77
2022-08-05T04:02:38.784Z,21.73
2022-08-05T04:05:13.026Z,21.71
2022-08-05T04:07:58.103Z,21.71
2022-08-05T04:10:33.356Z,21.70
2022-08-05T04:13:05.599Z,21.69
2022-08-05T04:15:36.278Z,21.69
2022-08-05T04:18:07.334Z,21.70
2022-08-05T04:20:36.809Z,21.70
2022-08-05T04:23:03.682Z,21.74
2022-08-05T04:25:56.673Z,21.70
2022-08-05T04:28:17.668Z,21.73
2022-08-05T04:30:45.144Z,21.77
2022-08-05T04:33:11.907Z,21.81
2022-08-05T04:36:10.854Z,21.84
2022-08-05T04:38:39.750Z,21.89
2022-08-05T04:41:07.328Z,21.94
2022-08-05T04:43:36.036Z,21.96
2022-08-05T04:46:05.085Z,22.00
2022-08-05T04:48:31.970Z,22.08
2022-08-05T04:51:01.831Z,22.10
2022-08-05T04:53:33.699Z,22.11
2022-08-05T04:56:32.400Z,22.12
2022-08-05T04:58:48.357Z,22.15
2022-08-05T05:01:14.899Z,22.19
2022-08-05T05:04:00.562Z,22.24
2022-08-05T05:06:39.827Z,22.33
2022-08-05T05:09:17.043Z,22.43
2022-08-05T05:11:54.457Z,22.51
2022-08-05T05:14:27.995Z,22.63
2022-08-05T05:16:59.928Z,22.77
2022-08-05T05:19:26.576Z,22.92
2022-08-05T05:22:03.618Z,23.13
2022-08-05T05:24:58.034Z,23.31
2022-08-05T05:27:44.943Z,23.53
2022-08-05T05:30:31.031Z,23.83
2022-08-05T05:33:13.936Z,24.31
2022-08-05T05:35:44.338Z,25.28
2022-08-05T05:38:13.188Z,26.42
2022-08-05T05:40:49.435Z,27.54
2022-08-05T05:43:27.851Z,28.53
2022-08-05T05:46:05.241Z,29.40
2022-08-05T05:48:32.349Z,30.17
2022-08-05T05:51:15.070Z,30.69
2022-08-05T05:53:45.979Z,31.30
2022-08-05T05:56:26.178Z,31.82
2022-08-05T05:58:58.597Z,32.28
2022-08-05T06:01:37.177Z,32.43
2022-08-05T06:04:07.539Z,32.64
2022-08-05T06:06:35.102Z,33.03
2022-08-05T06:09:05.703Z,33.52
2022-08-05T06:11:34.577Z,34.03
2022-08-05T06:14:01.627Z,34.08
2022-08-05T06:16:36.932Z,34.33
2022-08-05T06:19:05.893Z,34.39
2022-08-05T06:21:35.888Z,34.04
2022-08-05T06:24:12.423Z,33.85
2022-08-05T06:26:52.325Z,33.94
2022-08-05T06:29:49.610Z,33.67
2022-08-05T06:32:25.190Z,33.40
2022-08-05T06:34:56.247Z,32.55
2022-08-05T06:37:52.410Z,32.17
2022-08-05T06:40:11.158Z,31.84
2022-08-05T06:42:39.751Z,31.90
2022-08-05T06:45:08.599Z,31.54
2022-08-05T06:48:37.220Z,30.70
2022-08-05T06:50:23.589Z,29.97
2022-08-05T06:53:03.531Z,29.39
2022-08-05T06:55:36.970Z,29.19
2022-08-05T06:58:29.518Z,29.26
2022-08-05T07:00:50.671Z,29.44
2022-08-05T07:03:17.423Z,29.37
2022-08-05T07:05:44.542Z,29.32
2022-08-05T07:08:13.105Z,29.35
2022-08-05T07:10:53.221Z,29.44
2022-08-05T07:13:59.364Z,28.82
2022-08-05T07:17:56.217Z,28.88
2022-08-05T07:22:28.101Z,28.51
2022-08-05T07:25:09.502Z,28.45
2022-08-05T07:27:57.399Z,28.41
2022-08-05T07:30:34.268Z,28.11
2022-08-05T07:33:05.316Z,28.07
2022-08-05T07:36:05.387Z,28.01
2022-08-05T07:38:35.353Z,27.75
2022-08-05T07:45:13.573Z,27.46
2022-08-05T07:48:13.972Z,27.33
2022-08-05T07:51:00.587Z,27.06
2022-08-05T07:53:36.875Z,27.04
2022-08-05T07:57:00.063Z,27.14
2022-08-05T07:59:03.981Z,27.14
2022-08-05T08:01:52.060Z,27.31
2022-08-05T08:05:49.428Z,27.75
2022-08-05T08:08:12.472Z,27.90
2022-08-05T08:10:40.691Z,28.16
2022-08-05T08:13:07.213Z,28.05
2022-08-05T08:24:01.541Z,28.00
2022-08-05T08:26:02.424Z,27.80
2022-08-05T08:28:59.259Z,27.72
2022-08-05T08:31:41.381Z,27.78
2022-08-05T08:34:09.652Z,27.62
2022-08-05T08:36:48.977Z,27.62
2022-08-05T08:39:28.213Z,27.88
2022-08-05T08:42:00.010Z,28.10
2022-08-05T08:45:19.194Z,28.15
2022-08-05T08:48:12.316Z,28.18
2022-08-05T08:51:04.068Z,28.11
2022-08-05T08:53:22.401Z,28.18
2022-08-05T08:56:03.626Z,28.43
2022-08-05T08:58:43.193Z,28.45
2022-08-05T09:01:15.798Z,28.64
2022-08-05T09:03:54.230Z,28.77
2022-08-05T09:06:27.965Z,28.98
2022-08-05T09:08:58.280Z,29.06
2022-08-05T09:11:53.042Z,29.10
2022-08-05T09:14:58.677Z,29.15
2022-08-05T09:17:00.098Z,29.44
2022-08-05T09:19:27.940Z,29.45
2022-08-05T09:22:23.367Z,29.44
2022-08-05T09:25:13.551Z,29.55
2022-08-05T09:28:05.940Z,29.67
2022-08-05T09:30:34.953Z,29.57
2022-08-05T09:33:02.429Z,29.33
2022-08-05T09:35:31.515Z,29.02
2022-08-05T09:38:17.915Z,29.34
2022-08-05T09:40:53.694Z,29.67
2022-08-05T09:43:40.588Z,29.52
2022-08-05T09:46:28.509Z,29.72
2022-08-05T09:49:07.312Z,29.79
2022-08-05T09:51:49.592Z,29.71
2022-08-05T09:54:29.025Z,29.62
2022-08-05T09:56:56.241Z,29.57
2022-08-05T09:59:24.274Z,29.65
2022-08-05T10:01:58.011Z,29.84
2022-08-05T10:04:35.337Z,29.79
2022-08-05T10:07:14.090Z,29.91
2022-08-05T10:10:04.247Z,30.16
2022-08-05T10:12:49.203Z,30.42
2022-08-05T10:15:20.957Z,30.64
2022-08-05T10:18:22.857Z,30.87
2022-08-05T10:20:53.226Z,30.78
2022-08-05T10:23:55.109Z,30.79
2022-08-05T10:26:13.763Z,30.92
2022-08-05T10:28:44.962Z,30.89
2022-08-05T10:32:53.606Z,30.87
2022-08-05T10:34:00.163Z,30.94
2022-08-05T10:36:27.213Z,31.17
2022-08-05T10:39:10.074Z,31.29
2022-08-05T10:42:13.305Z,31.18
2022-08-05T10:44:45.119Z,31.27
2022-08-05T10:47:26.426Z,31.44
2022-08-05T10:50:33.009Z,31.71
2022-08-05T10:53:01.075Z,31.88
2022-08-05T10:55:30.506Z,32.06
2022-08-05T10:58:09.656Z,31.99
2022-08-05T11:00:42.063Z,32.03
2022-08-05T11:03:24.233Z,32.00
2022-08-05T11:06:16.210Z,31.91
2022-08-05T11:09:18.500Z,31.89
2022-08-05T11:11:52.556Z,31.89
2022-08-05T11:14:42.926Z,31.82
2022-08-05T11:18:07.393Z,31.85
2022-08-05T11:20:39.107Z,32.16
2022-08-05T11:23:33.454Z,32.18
2022-08-05T11:26:17.194Z,32.15
2022-08-05T11:28:56.213Z,32.56
2022-08-05T11:31:58.871Z,32.55
2022-08-05T11:34:37.281Z,32.41
2022-08-05T11:37:06.259Z,32.71
2022-08-05T11:39:55.408Z,32.90
2022-08-05T11:42:28.066Z,32.80
2022-08-05T11:45:05.323Z,32.93
2022-08-05T11:47:48.563Z,32.79
2022-08-05T11:50:16.667Z,32.75
2022-08-05T11:52:44.046Z,32.91
2022-08-05T11:55:13.323Z,33.14
2022-08-05T11:58:09.532Z,33.41
2022-08-05T12:00:32.638Z,33.42
2022-08-05T12:03:28.965Z,33.10
2022-08-05T12:06:06.216Z,32.96
2022-08-05T12:08:49.843Z,32.98
2022-08-05T12:11:23.313Z,33.14
2022-08-05T12:14:04.264Z,33.34
2022-08-05T12:16:39.408Z,33.68
2022-08-05T12:19:08.448Z,33.95
2022-08-05T12:21:41.850Z,34.05
2022-08-05T12:24:14.322Z,34.15
2022-08-05T12:26:54.319Z,34.26
2022-08-05T12:29:26.530Z,34.46
2022-08-05T12:31:55.544Z,34.48
2022-08-05T12:34:28.352Z,34.46
2022-08-05T12:36:57.037Z,34.43
2022-08-05T12:39:27.921Z,34.35
2022-08-05T12:42:01.244Z,34.15
2022-08-05T12:44:33.892Z,34.04
2022-08-05T12:47:01.696Z,33.95
2022-08-05T12:50:01.986Z,33.79
2022-08-05T12:52:32.278Z,33.99
2022-08-05T12:55:16.922Z,34.05
2022-08-05T12:58:38.364Z,34.10
2022-08-05T13:02:05.821Z,34.09
2022-08-05T13:03:18.055Z,34.16
2022-08-05T13:05:48.138Z,34.43
2022-08-05T13:08:19.615Z,34.57
2022-08-05T13:10:50.490Z,34.67
2022-08-05T13:14:05.052Z,34.59
2022-08-05T13:16:12.577Z,34.51
2022-08-05T13:18:51.682Z,34.50
2022-08-05T13:21:18.147Z,34.43
2022-08-05T13:23:50.801Z,34.38
2022-08-05T13:26:18.748Z,34.00
2022-08-05T13:28:46.587Z,34.11
2022-08-05T13:31:14.280Z,34.27
2022-08-05T13:34:21.106Z,34.31
2022-08-05T13:36:28.881Z,33.95
2022-08-05T13:38:55.529Z,33.93
2022-08-05T13:41:25.817Z,34.13
2022-08-05T13:44:04.560Z,34.20
2022-08-05T13:46:51.043Z,34.26
2022-08-05T13:49:19.454Z,34.04
2022-08-05T13:51:47.023Z,33.85
2022-08-05T13:54:15.884Z,33.88
2022-08-05T13:56:45.014Z,34.04
2022-08-05T13:59:20.254Z,33.78
2022-08-05T14:01:57.608Z,33.73
2022-08-05T14:04:50.552Z,33.71
2022-08-05T14:08:05.550Z,33.87
2022-08-05T14:10:31.073Z,33.77
2022-08-05T14:12:58.291Z,33.60
2022-08-05T14:16:05.996Z,33.78
2022-08-05T14:18:18.080Z,34.04
2022-08-05T14:20:47.483Z,34.24
2022-08-05T14:23:23.798Z,34.22
2022-08-05T14:25:54.105Z,34.41
2022-08-05T14:28:26.690Z,34.23
2022-08-05T14:30:53.697Z,34.07
2022-08-05T14:33:23.003Z,34.13
2022-08-05T14:35:50.679Z,34.01
2022-08-05T14:38:27.757Z,34.13
2022-08-05T14:41:00.888Z,34.09
2022-08-05T14:44:01.645Z,33.82
2022-08-05T14:46:13.873Z,33.95
2022-08-05T14:48:40.526Z,34.04
2022-08-05T14:51:06.983Z,33.88
2022-08-05T14:53:35.146Z,34.10
2022-08-05T14:56:11.210Z,34.13
2022-08-05T14:58:38.543Z,33.91
2022-08-05T15:01:16.030Z,33.89
2022-08-05T15:03:43.533Z,33.92
2022-08-05T15:06:14.911Z,34.03
2022-08-05T15:08:59.868Z,33.88
2022-08-05T15:11:52.564Z,33.95
2022-08-05T15:14:20.262Z,33.98
2022-08-05T15:17:01.090Z,33.98
2022-08-05T15:19:27.627Z,33.82
2022-08-05T15:21:54.470Z,33.68
2022-08-05T15:24:26.795Z,33.46
2022-08-05T15:26:53.248Z,33.18
2022-08-05T15:29:29.878Z,32.78
2022-08-05T15:31:57.394Z,32.49
2022-08-05T15:34:33.093Z,32.41
2022-08-05T15:37:06.143Z,32.54
2022-08-05T15:40:59.590Z,32.74
2022-08-05T15:42:53.964Z,32.99
2022-08-05T15:45:06.502Z,33.13
2022-08-05T15:47:32.987Z,33.17
2022-08-05T15:50:03.022Z,33.23
2022-08-05T15:52:53.774Z,33.10
2022-08-05T15:55:20.082Z,33.09
2022-08-05T15:57:51.854Z,33.09
2022-08-05T16:00:26.311Z,33.17
2022-08-05T16:03:05.006Z,33.04
2022-08-05T16:05:31.925Z,32.80
2022-08-05T16:07:58.366Z,32.73
2022-08-05T16:10:26.955Z,32.51
2022-08-05T16:12:55.968Z,32.42
2022-08-05T16:15:23.147Z,32.22
2022-08-05T16:17:57.499Z,32.06
2022-08-05T16:20:25.368Z,31.97
2022-08-05T16:22:51.950Z,31.79
2022-08-05T16:25:18.519Z,31.76
2022-08-05T16:27:47.004Z,31.85
2022-08-05T16:30:28.843Z,31.76
2022-08-05T16:32:55.710Z,31.77
2022-08-05T16:35:24.874Z,31.80
2022-08-05T16:38:02.683Z,31.77
2022-08-05T16:40:41.800Z,31.73
2022-08-05T16:43:08.331Z,31.75
2022-08-05T16:46:05.378Z,31.79
2022-08-05T16:48:25.360Z,31.82
2022-08-05T16:50:53.293Z,31.78
2022-08-05T16:53:22.443Z,31.65
2022-08-05T16:55:49.961Z,31.60
2022-08-05T16:58:19.975Z,31.63
2022-08-05T17:00:47.002Z,31.63
2022-08-05T17:03:19.832Z,31.64
2022-08-05T17:05:54.008Z,31.55
2022-08-05T17:08:36.310Z,31.50
2022-08-05T17:11:16.960Z,31.31
2022-08-05T17:13:47.002Z,31.18
2022-08-05T17:16:32.913Z,31.13
2022-08-05T17:19:00.852Z,31.05
2022-08-05T17:21:35.346Z,30.87
2022-08-05T17:24:04.841Z,30.63
2022-08-05T17:26:47.118Z,30.38
2022-08-05T17:29:14.306Z,30.32
2022-08-05T17:31:57.082Z,30.09
2022-08-05T17:34:29.765Z,29.86
2022-08-05T17:36:58.996Z,29.82
2022-08-05T17:39:29.826Z,29.61
2022-08-05T17:42:17.603Z,29.52
2022-08-05T17:44:50.237Z,29.46
2022-08-05T17:47:22.542Z,29.38
2022-08-05T17:50:03.720Z,29.34
2022-08-05T17:52:34.148Z,28.75
2022-08-05T17:55:01.211Z,28.20
2022-08-05T17:57:29.593Z,27.77
2022-08-05T18:00:04.885Z,27.42
2022-08-05T18:02:33.233Z,27.15
2022-08-05T18:05:06.400Z,26.86
2022-08-05T18:07:41.360Z,26.64
2022-08-05T18:10:10.449Z,26.55
2022-08-05T18:12:37.331Z,26.29
2022-08-05T18:15:04.193Z,25.97
2022-08-05T18:18:00.796Z,25.87
2022-08-05T18:20:28.973Z,25.73
2022-08-05T18:22:57.393Z,25.59
2022-08-05T18:25:25.033Z,25.34
2022-08-05T18:27:52.416Z,25.20
2022-08-05T18:30:19.609Z,25.14
2022-08-05T18:32:53.184Z,24.88
2022-08-05T18:35:28.282Z,24.78
2022-08-05T18:38:08.919Z,24.67
2022-08-05T18:41:56.161Z,24.56
2022-08-05T18:43:23.068Z,24.43
2022-08-05T18:45:49.654Z,24.41
2022-08-05T18:48:30.796Z,24.42
2022-08-05T18:52:05.293Z,24.28
2022-08-05T18:54:04.067Z,24.19
2022-08-05T18:56:30.527Z,24.25
2022-08-05T18:59:01.184Z,24.19
2022-08-05T19:01:47.166Z,24.10
2022-08-05T19:04:14.333Z,23.98
2022-08-05T19:06:50.682Z,23.84
2022-08-05T19:09:17.174Z,23.72
2022-08-05T19:12:00.752Z,23.64
2022-08-05T19:14:31.134Z,23.53
2022-08-05T19:17:12.932Z,23.31
2022-08-05T19:19:46.512Z,23.25
2022-08-05T19:22:13.696Z,23.26
2022-08-05T19:24:54.346Z,23.04
2022-08-05T19:27:27.758Z,23.07
2022-08-05T19:29:57.236Z,22.87
2022-08-05T19:32:26.180Z,22.71
2022-08-05T19:34:54.596Z,22.54
2022-08-05T19:37:29.737Z,22.45
2022-08-05T19:40:12.179Z,22.23
2022-08-05T19:42:39.049Z,22.16
2022-08-05T19:45:07.078Z,22.08
2022-08-05T19:47:37.158Z,21.91
2022-08-05T19:50:06.204Z,21.92
2022-08-05T19:52:34.555Z,21.88
2022-08-05T19:55:07.106Z,21.79
2022-08-05T19:58:19.735Z,21.66
2022-08-05T20:00:35.656Z,21.63
2022-08-05T20:03:08.467Z,21.62
2022-08-05T20:05:49.830Z,21.60
2022-08-05T20:08:17.337Z,21.61
2022-08-05T20:10:43.666Z,21.50
2022-08-05T20:13:10.904Z,21.38
2022-08-05T20:15:52.597Z,21.36
2022-08-05T20:18:34.006Z,21.32
2022-08-05T20:21:05.162Z,21.30
2022-08-05T20:23:50.941Z,21.30
2022-08-05T20:26:21.644Z,21.21
2022-08-05T20:28:53.786Z,21.16
2022-08-05T20:31:37.226Z,20.96
2022-08-05T20:34:12.513Z,20.86
2022-08-05T20:36:43.329Z,20.88
2022-08-05T20:39:13.231Z,20.88
2022-08-05T20:41:43.545Z,20.73
2022-08-05T20:44:18.962Z,20.64
2022-08-05T20:46:58.231Z,20.68
2022-08-05T20:49:26.113Z,20.62
2022-08-05T20:51:54.123Z,20.46
2022-08-05T20:54:21.291Z,20.53
2022-08-05T20:56:48.943Z,20.52
2022-08-05T20:59:19.222Z,20.46
2022-08-05T21:01:53.715Z,20.44
2022-08-05T21:04:27.008Z,20.26
2022-08-05T21:06:54.073Z,20.09
2022-08-05T21:09:20.421Z,20.07
2022-08-05T21:12:09.931Z,19.98
2022-08-05T21:14:34.933Z,19.94
2022-08-05T21:17:03.024Z,19.91
2022-08-05T21:19:46.501Z,19.88
2022-08-05T21:22:23.339Z,19.76
2022-08-05T21:24:54.444Z,19.66
2022-08-05T21:27:27.089Z,19.65
2022-08-05T21:29:55.832Z,19.54
2022-08-05T21:32:27.042Z,19.45
2022-08-05T21:35:08.445Z,19.50
2022-08-05T21:37:42.720Z,19.44
2022-08-05T21:40:14.203Z,19.45
2022-08-05T21:42:45.330Z,19.48
2022-08-05T21:45:17.591Z,19.49
2022-08-05T21:47:56.385Z,19.50
2022-08-05T21:50:25.865Z,19.46
2022-08-05T21:52:52.320Z,19.22
2022-08-05T21:55:23.731Z,19.12
2022-08-05T21:58:06.339Z,18.98
2022-08-05T22:00:32.742Z,18.94
2022-08-05T22:02:59.773Z,18.93
2022-08-05T22:05:27.344Z,18.91
2022-08-05T22:07:59.379Z,18.93
2022-08-05T22:10:27.498Z,18.87
2022-08-05T22:12:59.062Z,18.95
2022-08-05T22:16:00.595Z,18.95
2022-08-05T22:18:25.712Z,18.93
2022-08-05T22:20:52.551Z,18.86
2022-08-05T22:24:02.432Z,18.84
2022-08-05T22:26:42.233Z,18.75
2022-08-05T22:29:17.399Z,18.77
2022-08-05T22:31:45.285Z,18.78
2022-08-05T22:34:12.861Z,18.73
2022-08-05T22:36:46.878Z,18.50
2022-08-05T22:39:19.723Z,18.18
2022-08-05T22:42:09.416Z,18.00
2022-08-05T22:44:34.507Z,17.79
2022-08-05T22:47:01.001Z,17.77
2022-08-05T22:50:20.706Z,17.58
2022-08-05T22:52:22.845Z,17.64
2022-08-05T22:54:59.289Z,17.61
2022-08-05T22:57:26.556Z,17.58
2022-08-05T22:59:54.299Z,17.40
2022-08-05T23:02:29.242Z,17.24
2022-08-05T23:04:57.898Z,17.30
2022-08-05T23:07:28.232Z,17.23
2022-08-05T23:10:01.451Z,17.23
2022-08-05T23:12:32.612Z,17.19
2022-08-05T23:15:01.419Z,17.09
2022-08-05T23:17:32.850Z,16.95
2022-08-05T23:20:16.831Z,16.90
2022-08-05T23:22:47.116Z,16.82
2022-08-05T23:25:17.525Z,16.71
2022-08-05T23:28:01.066Z,16.60
2022-08-05T23:30:29.067Z,16.57
2022-08-05T23:32:57.703Z,16.52
2022-08-05T23:35:25.383Z,16.53
2022-08-05T23:37:55.114Z,16.55
2022-08-05T23:40:27.131Z,16.54
2022-08-05T23:42:53.908Z,16.50
2022-08-05T23:45:20.498Z,16.55
2022-08-05T23:47:50.364Z,16.61
2022-08-05T23:50:20.598Z,16.56
2022-08-05T23:52:50.044Z,16.61
2022-08-05T23:55:18.295Z,16.59
2022-08-05T23:57:51.055Z,16.55
